sensor_id;sensor_type;location;lat;lon;timestamp;P1;durP1;ratioP1;P2;durP2;ratioP2
27839;SDS011;15207;42.182;24.308;2023-06-26T00:02:14;9.23;;;4.60;;
27839;SDS011;15207;42.182;24.308;2023-06-26T00:04:41;11.70;;;4.35;;
27839;SDS011;15207;42.182;24.308;2023-06-26T00:07:10;9.05;;;4.38;;
27839;SDS011;15207;42.182;24.308;2023-06-26T00:09:36;8.50;;;4.35;;
27839;SDS011;15207;42.182;24.308;2023-06-26T00:12:02;7.32;;;4.18;;
27839;SDS011;15207;42.182;24.308;2023-06-26T00:14:28;9.40;;;4.80;;
27839;SDS011;15207;42.182;24.308;2023-06-26T00:16:54;9.25;;;4.80;;
27839;SDS011;15207;42.182;24.308;2023-06-26T00:19:19;9.77;;;5.05;;
27839;SDS011;15207;42.182;24.308;2023-06-26T00:21:45;8.80;;;4.80;;
27839;SDS011;15207;42.182;24.308;2023-06-26T00:24:12;9.60;;;4.40;;
27839;SDS011;15207;42.182;24.308;2023-06-26T00:26:38;9.98;;;5.32;;
27839;SDS011;15207;42.182;24.308;2023-06-26T00:29:04;7.32;;;4.63;;
27839;SDS011;15207;42.182;24.308;2023-06-26T00:31:29;10.50;;;5.20;;
27839;SDS011;15207;42.182;24.308;2023-06-26T00:33:55;8.55;;;4.80;;
27839;SDS011;15207;42.182;24.308;2023-06-26T00:36:21;8.85;;;4.85;;
27839;SDS011;15207;42.182;24.308;2023-06-26T00:38:48;8.30;;;4.45;;
27839;SDS011;15207;42.182;24.308;2023-06-26T00:41:14;10.35;;;5.20;;
27839;SDS011;15207;42.182;24.308;2023-06-26T00:43:40;11.70;;;5.40;;
27839;SDS011;15207;42.182;24.308;2023-06-26T00:46:06;9.55;;;4.50;;
27839;SDS011;15207;42.182;24.308;2023-06-26T00:48:34;9.10;;;4.43;;
27839;SDS011;15207;42.182;24.308;2023-06-26T00:50:59;10.30;;;5.05;;
27839;SDS011;15207;42.182;24.308;2023-06-26T00:53:25;9.10;;;4.90;;
27839;SDS011;15207;42.182;24.308;2023-06-26T00:55:51;12.65;;;5.20;;
27839;SDS011;15207;42.182;24.308;2023-06-26T00:58:17;11.60;;;5.63;;
27839;SDS011;15207;42.182;24.308;2023-06-26T01:00:42;13.10;;;5.40;;
27839;SDS011;15207;42.182;24.308;2023-06-26T01:03:10;10.80;;;5.57;;
27839;SDS011;15207;42.182;24.308;2023-06-26T01:05:37;8.40;;;5.10;;
27839;SDS011;15207;42.182;24.308;2023-06-26T01:08:03;9.67;;;5.00;;
27839;SDS011;15207;42.182;24.308;2023-06-26T01:10:30;8.50;;;5.00;;
27839;SDS011;15207;42.182;24.308;2023-06-26T01:12:56;10.30;;;5.45;;
27839;SDS011;15207;42.182;24.308;2023-06-26T01:15:22;10.60;;;5.35;;
27839;SDS011;15207;42.182;24.308;2023-06-26T01:17:48;8.55;;;5.30;;
27839;SDS011;15207;42.182;24.308;2023-06-26T01:20:15;12.90;;;5.47;;
27839;SDS011;15207;42.182;24.308;2023-06-26T01:23:05;14.30;;;6.10;;
27839;SDS011;15207;42.182;24.308;2023-06-26T01:31:04;9.05;;;5.25;;
27839;SDS011;15207;42.182;24.308;2023-06-26T01:33:31;10.43;;;5.60;;
27839;SDS011;15207;42.182;24.308;2023-06-26T01:35:57;12.73;;;6.43;;
27839;SDS011;15207;42.182;24.308;2023-06-26T01:38:23;11.40;;;5.70;;
27839;SDS011;15207;42.182;24.308;2023-06-26T01:40:49;11.40;;;6.50;;
27839;SDS011;15207;42.182;24.308;2023-06-26T01:43:20;12.30;;;6.30;;
27839;SDS011;15207;42.182;24.308;2023-06-26T01:45:54;12.40;;;6.10;;
27839;SDS011;15207;42.182;24.308;2023-06-26T01:48:25;10.53;;;6.37;;
27839;SDS011;15207;42.182;24.308;2023-06-26T01:50:58;11.00;;;6.30;;
27839;SDS011;15207;42.182;24.308;2023-06-26T01:53:25;17.27;;;7.35;;
27839;SDS011;15207;42.182;24.308;2023-06-26T01:56:00;12.68;;;5.80;;
27839;SDS011;15207;42.182;24.308;2023-06-26T01:58:32;10.30;;;5.95;;
27839;SDS011;15207;42.182;24.308;2023-06-26T02:01:00;10.70;;;5.70;;
27839;SDS011;15207;42.182;24.308;2023-06-26T02:03:26;11.75;;;5.80;;
27839;SDS011;15207;42.182;24.308;2023-06-26T02:05:51;12.65;;;6.00;;
27839;SDS011;15207;42.182;24.308;2023-06-26T02:08:17;12.33;;;5.70;;
27839;SDS011;15207;42.182;24.308;2023-06-26T02:10:42;11.50;;;6.15;;
27839;SDS011;15207;42.182;24.308;2023-06-26T02:13:08;11.25;;;6.20;;
27839;SDS011;15207;42.182;24.308;2023-06-26T02:15:33;10.73;;;5.77;;
27839;SDS011;15207;42.182;24.308;2023-06-26T02:17:59;13.00;;;6.40;;
27839;SDS011;15207;42.182;24.308;2023-06-26T02:25:15;13.60;;;6.50;;
27839;SDS011;15207;42.182;24.308;2023-06-26T02:27:41;12.75;;;6.10;;
27839;SDS011;15207;42.182;24.308;2023-06-26T02:30:08;13.05;;;6.45;;
27839;SDS011;15207;42.182;24.308;2023-06-26T02:32:34;11.70;;;6.00;;
27839;SDS011;15207;42.182;24.308;2023-06-26T02:34:59;13.47;;;6.83;;
27839;SDS011;15207;42.182;24.308;2023-06-26T02:37:25;14.00;;;7.10;;
27839;SDS011;15207;42.182;24.308;2023-06-26T02:39:51;12.15;;;7.05;;
27839;SDS011;15207;42.182;24.308;2023-06-26T02:42:16;11.83;;;6.60;;
27839;SDS011;15207;42.182;24.308;2023-06-26T02:44:42;17.92;;;6.95;;
27839;SDS011;15207;42.182;24.308;2023-06-26T02:47:07;13.90;;;6.60;;
27839;SDS011;15207;42.182;24.308;2023-06-26T02:49:33;14.70;;;7.40;;
27839;SDS011;15207;42.182;24.308;2023-06-26T02:51:58;15.10;;;7.30;;
27839;SDS011;15207;42.182;24.308;2023-06-26T02:54:24;12.00;;;6.63;;
27839;SDS011;15207;42.182;24.308;2023-06-26T02:56:49;11.60;;;6.50;;
27839;SDS011;15207;42.182;24.308;2023-06-26T02:59:15;16.10;;;6.90;;
27839;SDS011;15207;42.182;24.308;2023-06-26T03:01:40;15.70;;;7.35;;
27839;SDS011;15207;42.182;24.308;2023-06-26T03:04:06;12.65;;;7.10;;
27839;SDS011;15207;42.182;24.308;2023-06-26T03:06:32;12.75;;;6.93;;
27839;SDS011;15207;42.182;24.308;2023-06-26T03:08:57;18.02;;;8.07;;
27839;SDS011;15207;42.182;24.308;2023-06-26T03:11:23;15.20;;;7.37;;
27839;SDS011;15207;42.182;24.308;2023-06-26T03:13:48;15.65;;;8.23;;
27839;SDS011;15207;42.182;24.308;2023-06-26T03:16:14;14.50;;;8.25;;
27839;SDS011;15207;42.182;24.308;2023-06-26T03:18:39;17.40;;;8.00;;
27839;SDS011;15207;42.182;24.308;2023-06-26T03:21:05;16.60;;;8.40;;
27839;SDS011;15207;42.182;24.308;2023-06-26T03:23:30;14.75;;;7.95;;
27839;SDS011;15207;42.182;24.308;2023-06-26T03:25:56;13.80;;;7.70;;
27839;SDS011;15207;42.182;24.308;2023-06-26T03:28:21;15.30;;;7.60;;
27839;SDS011;15207;42.182;24.308;2023-06-26T03:30:47;14.35;;;7.40;;
27839;SDS011;15207;42.182;24.308;2023-06-26T03:33:13;15.18;;;7.68;;
27839;SDS011;15207;42.182;24.308;2023-06-26T03:35:38;15.55;;;8.45;;
27839;SDS011;15207;42.182;24.308;2023-06-26T03:38:04;19.08;;;8.60;;
27839;SDS011;15207;42.182;24.308;2023-06-26T03:40:31;16.50;;;8.30;;
27839;SDS011;15207;42.182;24.308;2023-06-26T03:42:56;13.82;;;7.65;;
27839;SDS011;15207;42.182;24.308;2023-06-26T03:45:22;15.50;;;8.00;;
27839;SDS011;15207;42.182;24.308;2023-06-26T03:47:47;16.00;;;7.60;;
27839;SDS011;15207;42.182;24.308;2023-06-26T03:50:17;19.65;;;8.40;;
27839;SDS011;15207;42.182;24.308;2023-06-26T03:52:44;16.00;;;8.07;;
27839;SDS011;15207;42.182;24.308;2023-06-26T03:55:09;18.30;;;7.40;;
27839;SDS011;15207;42.182;24.308;2023-06-26T03:57:35;16.02;;;7.63;;
27839;SDS011;15207;42.182;24.308;2023-06-26T04:00:01;13.40;;;7.50;;
27839;SDS011;15207;42.182;24.308;2023-06-26T04:02:26;15.00;;;7.70;;
27839;SDS011;15207;42.182;24.308;2023-06-26T04:04:52;15.30;;;8.35;;
27839;SDS011;15207;42.182;24.308;2023-06-26T04:07:18;14.40;;;7.90;;
27839;SDS011;15207;42.182;24.308;2023-06-26T04:09:44;15.30;;;9.00;;
27839;SDS011;15207;42.182;24.308;2023-06-26T04:12:10;15.40;;;8.05;;
27839;SDS011;15207;42.182;24.308;2023-06-26T04:14:35;14.25;;;8.35;;
27839;SDS011;15207;42.182;24.308;2023-06-26T04:17:01;15.30;;;7.63;;
27839;SDS011;15207;42.182;24.308;2023-06-26T04:19:29;15.15;;;8.15;;
27839;SDS011;15207;42.182;24.308;2023-06-26T04:21:55;14.65;;;7.88;;
27839;SDS011;15207;42.182;24.308;2023-06-26T04:26:46;16.90;;;7.40;;
27839;SDS011;15207;42.182;24.308;2023-06-26T04:29:12;12.53;;;7.87;;
27839;SDS011;15207;42.182;24.308;2023-06-26T04:31:38;13.50;;;8.30;;
27839;SDS011;15207;42.182;24.308;2023-06-26T04:34:04;20.35;;;8.30;;
27839;SDS011;15207;42.182;24.308;2023-06-26T04:36:29;16.40;;;8.47;;
27839;SDS011;15207;42.182;24.308;2023-06-26T04:38:56;13.90;;;7.82;;
27839;SDS011;15207;42.182;24.308;2023-06-26T04:41:22;15.65;;;7.85;;
27839;SDS011;15207;42.182;24.308;2023-06-26T04:43:48;12.95;;;7.80;;
27839;SDS011;15207;42.182;24.308;2023-06-26T04:46:14;49.80;;;11.40;;
27839;SDS011;15207;42.182;24.308;2023-06-26T04:48:39;10.23;;;7.53;;
27839;SDS011;15207;42.182;24.308;2023-06-26T04:51:05;16.60;;;8.55;;
27839;SDS011;15207;42.182;24.308;2023-06-26T04:53:31;14.20;;;7.55;;
27839;SDS011;15207;42.182;24.308;2023-06-26T04:55:56;14.20;;;7.40;;
27839;SDS011;15207;42.182;24.308;2023-06-26T04:58:22;15.80;;;7.40;;
27839;SDS011;15207;42.182;24.308;2023-06-26T05:00:47;14.80;;;8.87;;
27839;SDS011;15207;42.182;24.308;2023-06-26T05:03:14;11.43;;;7.70;;
27839;SDS011;15207;42.182;24.308;2023-06-26T05:05:42;14.25;;;6.82;;
27839;SDS011;15207;42.182;24.308;2023-06-26T05:10:44;12.70;;;7.10;;
27839;SDS011;15207;42.182;24.308;2023-06-26T05:13:10;12.85;;;7.00;;
27839;SDS011;15207;42.182;24.308;2023-06-26T05:15:36;10.45;;;6.90;;
27839;SDS011;15207;42.182;24.308;2023-06-26T05:18:02;11.20;;;6.65;;
27839;SDS011;15207;42.182;24.308;2023-06-26T05:20:28;10.90;;;6.50;;
27839;SDS011;15207;42.182;24.308;2023-06-26T05:22:53;11.52;;;6.35;;
27839;SDS011;15207;42.182;24.308;2023-06-26T05:25:20;11.00;;;6.85;;
27839;SDS011;15207;42.182;24.308;2023-06-26T05:27:47;12.63;;;6.72;;
27839;SDS011;15207;42.182;24.308;2023-06-26T05:30:13;11.60;;;6.40;;
27839;SDS011;15207;42.182;24.308;2023-06-26T05:32:39;14.30;;;6.20;;
27839;SDS011;15207;42.182;24.308;2023-06-26T05:35:05;10.45;;;6.85;;
27839;SDS011;15207;42.182;24.308;2023-06-26T05:37:33;11.23;;;6.95;;
27839;SDS011;15207;42.182;24.308;2023-06-26T05:39:59;9.70;;;6.70;;
27839;SDS011;15207;42.182;24.308;2023-06-26T05:42:27;13.03;;;7.17;;
27839;SDS011;15207;42.182;24.308;2023-06-26T05:44:55;12.75;;;6.80;;
27839;SDS011;15207;42.182;24.308;2023-06-26T05:47:21;11.05;;;7.10;;
27839;SDS011;15207;42.182;24.308;2023-06-26T05:49:47;11.50;;;6.80;;
27839;SDS011;15207;42.182;24.308;2023-06-26T05:52:13;15.48;;;7.60;;
27839;SDS011;15207;42.182;24.308;2023-06-26T05:54:39;9.65;;;6.50;;
27839;SDS011;15207;42.182;24.308;2023-06-26T05:57:05;12.60;;;7.05;;
27839;SDS011;15207;42.182;24.308;2023-06-26T05:59:31;9.45;;;6.90;;
27839;SDS011;15207;42.182;24.308;2023-06-26T06:01:57;10.45;;;6.60;;
27839;SDS011;15207;42.182;24.308;2023-06-26T06:04:23;11.20;;;6.80;;
27839;SDS011;15207;42.182;24.308;2023-06-26T06:06:48;10.90;;;6.22;;
27839;SDS011;15207;42.182;24.308;2023-06-26T06:09:14;13.10;;;7.00;;
27839;SDS011;15207;42.182;24.308;2023-06-26T06:11:40;9.10;;;6.00;;
27839;SDS011;15207;42.182;24.308;2023-06-26T06:14:06;11.00;;;6.30;;
27839;SDS011;15207;42.182;24.308;2023-06-26T06:16:31;10.00;;;5.40;;
27839;SDS011;15207;42.182;24.308;2023-06-26T06:18:57;11.10;;;5.55;;
27839;SDS011;15207;42.182;24.308;2023-06-26T06:21:22;7.80;;;5.45;;
27839;SDS011;15207;42.182;24.308;2023-06-26T06:23:48;10.50;;;5.20;;
27839;SDS011;15207;42.182;24.308;2023-06-26T06:26:14;7.75;;;5.15;;
27839;SDS011;15207;42.182;24.308;2023-06-26T06:28:39;7.00;;;4.50;;
27839;SDS011;15207;42.182;24.308;2023-06-26T06:31:05;8.03;;;4.73;;
27839;SDS011;15207;42.182;24.308;2023-06-26T06:33:30;7.93;;;4.97;;
27839;SDS011;15207;42.182;24.308;2023-06-26T06:35:56;6.10;;;4.40;;
27839;SDS011;15207;42.182;24.308;2023-06-26T06:38:22;8.90;;;5.15;;
27839;SDS011;15207;42.182;24.308;2023-06-26T06:40:47;6.10;;;4.45;;
27839;SDS011;15207;42.182;24.308;2023-06-26T06:43:13;9.47;;;4.30;;
27839;SDS011;15207;42.182;24.308;2023-06-26T06:45:39;7.50;;;4.50;;
27839;SDS011;15207;42.182;24.308;2023-06-26T06:48:05;7.03;;;4.17;;
27839;SDS011;15207;42.182;24.308;2023-06-26T06:50:31;6.30;;;3.80;;
27839;SDS011;15207;42.182;24.308;2023-06-26T06:52:56;6.45;;;4.45;;
27839;SDS011;15207;42.182;24.308;2023-06-26T06:55:22;7.07;;;4.50;;
27839;SDS011;15207;42.182;24.308;2023-06-26T06:57:48;4.40;;;3.40;;
27839;SDS011;15207;42.182;24.308;2023-06-26T07:00:15;7.70;;;4.10;;
27839;SDS011;15207;42.182;24.308;2023-06-26T07:02:44;8.15;;;4.25;;
27839;SDS011;15207;42.182;24.308;2023-06-26T07:05:11;6.28;;;3.95;;
27839;SDS011;15207;42.182;24.308;2023-06-26T07:07:37;5.75;;;3.65;;
27839;SDS011;15207;42.182;24.308;2023-06-26T07:10:04;6.38;;;3.95;;
27839;SDS011;15207;42.182;24.308;2023-06-26T07:14:59;8.30;;;4.07;;
27839;SDS011;15207;42.182;24.308;2023-06-26T07:17:25;11.90;;;3.83;;
27839;SDS011;15207;42.182;24.308;2023-06-26T07:19:51;5.47;;;3.90;;
27839;SDS011;15207;42.182;24.308;2023-06-26T07:22:17;8.75;;;3.85;;
27839;SDS011;15207;42.182;24.308;2023-06-26T07:24:45;6.83;;;3.83;;
27839;SDS011;15207;42.182;24.308;2023-06-26T07:27:17;5.00;;;3.20;;
27839;SDS011;15207;42.182;24.308;2023-06-26T07:29:44;6.70;;;3.90;;
27839;SDS011;15207;42.182;24.308;2023-06-26T07:32:09;6.35;;;4.10;;
27839;SDS011;15207;42.182;24.308;2023-06-26T07:34:35;6.40;;;3.30;;
27839;SDS011;15207;42.182;24.308;2023-06-26T07:37:01;5.20;;;3.30;;
27839;SDS011;15207;42.182;24.308;2023-06-26T07:39:27;6.80;;;3.50;;
27839;SDS011;15207;42.182;24.308;2023-06-26T07:41:52;5.35;;;3.00;;
27839;SDS011;15207;42.182;24.308;2023-06-26T07:44:17;5.43;;;3.10;;
27839;SDS011;15207;42.182;24.308;2023-06-26T07:46:43;3.37;;;2.87;;
27839;SDS011;15207;42.182;24.308;2023-06-26T07:49:10;6.95;;;3.20;;
27839;SDS011;15207;42.182;24.308;2023-06-26T07:51:36;4.50;;;3.10;;
27839;SDS011;15207;42.182;24.308;2023-06-26T07:54:01;6.80;;;3.50;;
27839;SDS011;15207;42.182;24.308;2023-06-26T07:56:27;5.95;;;3.30;;
27839;SDS011;15207;42.182;24.308;2023-06-26T07:58:52;4.60;;;3.35;;
27839;SDS011;15207;42.182;24.308;2023-06-26T08:01:18;5.53;;;2.63;;
27839;SDS011;15207;42.182;24.308;2023-06-26T08:03:44;9.10;;;3.30;;
27839;SDS011;15207;42.182;24.308;2023-06-26T08:06:10;5.45;;;2.80;;
27839;SDS011;15207;42.182;24.308;2023-06-26T08:08:35;8.90;;;4.10;;
27839;SDS011;15207;42.182;24.308;2023-06-26T08:11:01;14.00;;;5.40;;
27839;SDS011;15207;42.182;24.308;2023-06-26T08:13:26;5.30;;;2.65;;
27839;SDS011;15207;42.182;24.308;2023-06-26T08:15:52;5.00;;;3.20;;
27839;SDS011;15207;42.182;24.308;2023-06-26T08:18:18;6.63;;;3.13;;
27839;SDS011;15207;42.182;24.308;2023-06-26T08:20:43;5.90;;;3.10;;
27839;SDS011;15207;42.182;24.308;2023-06-26T08:23:09;4.15;;;2.80;;
27839;SDS011;15207;42.182;24.308;2023-06-26T08:25:34;12.10;;;3.50;;
27839;SDS011;15207;42.182;24.308;2023-06-26T08:28:01;7.43;;;3.33;;
27839;SDS011;15207;42.182;24.308;2023-06-26T08:30:26;5.80;;;3.10;;
27839;SDS011;15207;42.182;24.308;2023-06-26T08:32:55;6.40;;;3.15;;
27839;SDS011;15207;42.182;24.308;2023-06-26T08:35:21;5.00;;;2.93;;
27839;SDS011;15207;42.182;24.308;2023-06-26T08:37:47;4.95;;;3.10;;
27839;SDS011;15207;42.182;24.308;2023-06-26T08:40:12;6.20;;;3.50;;
27839;SDS011;15207;42.182;24.308;2023-06-26T08:42:43;7.20;;;3.20;;
27839;SDS011;15207;42.182;24.308;2023-06-26T08:45:10;3.50;;;2.77;;
27839;SDS011;15207;42.182;24.308;2023-06-26T08:47:36;4.40;;;2.80;;
27839;SDS011;15207;42.182;24.308;2023-06-26T08:55:33;4.67;;;3.30;;
27839;SDS011;15207;42.182;24.308;2023-06-26T08:58:03;3.40;;;2.20;;
27839;SDS011;15207;42.182;24.308;2023-06-26T09:00:29;6.20;;;3.20;;
27839;SDS011;15207;42.182;24.308;2023-06-26T09:02:56;5.30;;;3.30;;
27839;SDS011;15207;42.182;24.308;2023-06-26T09:05:22;6.77;;;3.30;;
27839;SDS011;15207;42.182;24.308;2023-06-26T09:07:48;4.30;;;3.00;;
27839;SDS011;15207;42.182;24.308;2023-06-26T09:10:14;5.30;;;3.50;;
27839;SDS011;15207;42.182;24.308;2023-06-26T09:12:40;5.47;;;3.33;;
27839;SDS011;15207;42.182;24.308;2023-06-26T09:15:07;7.55;;;4.35;;
27839;SDS011;15207;42.182;24.308;2023-06-26T09:17:33;5.00;;;3.10;;
27839;SDS011;15207;42.182;24.308;2023-06-26T09:20:06;5.90;;;3.23;;
27839;SDS011;15207;42.182;24.308;2023-06-26T09:22:33;3.40;;;2.90;;
27839;SDS011;15207;42.182;24.308;2023-06-26T09:27:27;5.97;;;3.20;;
27839;SDS011;15207;42.182;24.308;2023-06-26T09:29:53;3.60;;;3.00;;
27839;SDS011;15207;42.182;24.308;2023-06-26T09:32:23;3.80;;;2.75;;
27839;SDS011;15207;42.182;24.308;2023-06-26T09:34:51;8.80;;;3.70;;
27839;SDS011;15207;42.182;24.308;2023-06-26T09:37:18;4.65;;;2.50;;
27839;SDS011;15207;42.182;24.308;2023-06-26T09:39:45;4.40;;;2.80;;
27839;SDS011;15207;42.182;24.308;2023-06-26T09:42:13;4.50;;;3.20;;
27839;SDS011;15207;42.182;24.308;2023-06-26T09:44:48;4.30;;;2.90;;
27839;SDS011;15207;42.182;24.308;2023-06-26T09:47:16;5.70;;;2.60;;
27839;SDS011;15207;42.182;24.308;2023-06-26T09:49:44;3.33;;;2.00;;
27839;SDS011;15207;42.182;24.308;2023-06-26T09:52:11;3.65;;;1.85;;
27839;SDS011;15207;42.182;24.308;2023-06-26T09:54:45;4.50;;;2.30;;
27839;SDS011;15207;42.182;24.308;2023-06-26T09:57:12;4.03;;;2.07;;
27839;SDS011;15207;42.182;24.308;2023-06-26T09:59:39;3.63;;;1.97;;
27839;SDS011;15207;42.182;24.308;2023-06-26T10:02:05;5.45;;;2.20;;
27839;SDS011;15207;42.182;24.308;2023-06-26T10:04:31;4.30;;;2.10;;
27839;SDS011;15207;42.182;24.308;2023-06-26T10:06:58;3.70;;;2.25;;
27839;SDS011;15207;42.182;24.308;2023-06-26T10:09:27;3.95;;;2.13;;
27839;SDS011;15207;42.182;24.308;2023-06-26T10:14:34;6.15;;;2.20;;
27839;SDS011;15207;42.182;24.308;2023-06-26T10:17:03;3.80;;;2.10;;
27839;SDS011;15207;42.182;24.308;2023-06-26T10:19:33;4.67;;;2.30;;
27839;SDS011;15207;42.182;24.308;2023-06-26T10:22:01;5.80;;;2.65;;
27839;SDS011;15207;42.182;24.308;2023-06-26T10:24:29;4.90;;;2.60;;
27839;SDS011;15207;42.182;24.308;2023-06-26T10:27:02;5.15;;;2.70;;
27839;SDS011;15207;42.182;24.308;2023-06-26T10:29:33;6.13;;;2.57;;
27839;SDS011;15207;42.182;24.308;2023-06-26T10:32:00;6.63;;;2.83;;
27839;SDS011;15207;42.182;24.308;2023-06-26T10:34:29;3.80;;;2.90;;
27839;SDS011;15207;42.182;24.308;2023-06-26T10:36:59;6.97;;;2.95;;
27839;SDS011;15207;42.182;24.308;2023-06-26T10:39:26;3.55;;;2.55;;
27839;SDS011;15207;42.182;24.308;2023-06-26T10:41:54;4.70;;;2.30;;
27839;SDS011;15207;42.182;24.308;2023-06-26T10:46:55;3.17;;;2.20;;
27839;SDS011;15207;42.182;24.308;2023-06-26T10:49:28;4.43;;;3.00;;
27839;SDS011;15207;42.182;24.308;2023-06-26T10:51:55;4.35;;;2.60;;
27839;SDS011;15207;42.182;24.308;2023-06-26T10:54:23;4.15;;;2.30;;
27839;SDS011;15207;42.182;24.308;2023-06-26T10:56:54;4.13;;;2.30;;
27839;SDS011;15207;42.182;24.308;2023-06-26T10:59:25;10.82;;;3.13;;
27839;SDS011;15207;42.182;24.308;2023-06-26T11:02:01;4.40;;;2.45;;
27839;SDS011;15207;42.182;24.308;2023-06-26T11:07:20;3.25;;;2.10;;
27839;SDS011;15207;42.182;24.308;2023-06-26T11:09:56;4.97;;;2.57;;
27839;SDS011;15207;42.182;24.308;2023-06-26T11:12:36;2.80;;;2.05;;
27839;SDS011;15207;42.182;24.308;2023-06-26T11:15:03;4.15;;;2.35;;
27839;SDS011;15207;42.182;24.308;2023-06-26T11:17:32;3.00;;;2.30;;
27839;SDS011;15207;42.182;24.308;2023-06-26T11:19:59;3.70;;;2.10;;
27839;SDS011;15207;42.182;24.308;2023-06-26T11:22:26;2.70;;;2.20;;
27839;SDS011;15207;42.182;24.308;2023-06-26T11:24:53;2.80;;;1.80;;
27839;SDS011;15207;42.182;24.308;2023-06-26T11:27:19;3.40;;;2.20;;
27839;SDS011;15207;42.182;24.308;2023-06-26T11:29:48;6.70;;;2.15;;
27839;SDS011;15207;42.182;24.308;2023-06-26T11:32:14;4.45;;;2.40;;
27839;SDS011;15207;42.182;24.308;2023-06-26T11:34:40;6.03;;;2.27;;
27839;SDS011;15207;42.182;24.308;2023-06-26T11:37:08;4.05;;;2.20;;
27839;SDS011;15207;42.182;24.308;2023-06-26T11:39:34;5.15;;;1.90;;
27839;SDS011;15207;42.182;24.308;2023-06-26T11:42:00;4.20;;;1.80;;
27839;SDS011;15207;42.182;24.308;2023-06-26T11:44:28;6.30;;;2.00;;
27839;SDS011;15207;42.182;24.308;2023-06-26T11:46:55;3.65;;;1.77;;
27839;SDS011;15207;42.182;24.308;2023-06-26T11:49:22;3.35;;;1.90;;
27839;SDS011;15207;42.182;24.308;2023-06-26T11:51:50;4.05;;;1.95;;
27839;SDS011;15207;42.182;24.308;2023-06-26T11:54:22;4.47;;;1.60;;
27839;SDS011;15207;42.182;24.308;2023-06-26T11:56:53;6.50;;;2.00;;
27839;SDS011;15207;42.182;24.308;2023-06-26T11:59:21;2.30;;;1.70;;
27839;SDS011;15207;42.182;24.308;2023-06-26T12:01:49;2.70;;;1.80;;
27839;SDS011;15207;42.182;24.308;2023-06-26T12:04:16;2.80;;;1.50;;
27839;SDS011;15207;42.182;24.308;2023-06-26T12:06:48;3.20;;;1.90;;
27839;SDS011;15207;42.182;24.308;2023-06-26T12:09:17;2.80;;;1.70;;
27839;SDS011;15207;42.182;24.308;2023-06-26T12:11:44;4.68;;;2.28;;
27839;SDS011;15207;42.182;24.308;2023-06-26T12:14:15;3.60;;;2.00;;
27839;SDS011;15207;42.182;24.308;2023-06-26T12:16:43;5.03;;;2.10;;
27839;SDS011;15207;42.182;24.308;2023-06-26T12:24:08;4.22;;;2.10;;
27839;SDS011;15207;42.182;24.308;2023-06-26T12:26:35;4.55;;;1.85;;
27839;SDS011;15207;42.182;24.308;2023-06-26T12:29:07;4.35;;;1.85;;
27839;SDS011;15207;42.182;24.308;2023-06-26T12:31:39;4.00;;;1.55;;
27839;SDS011;15207;42.182;24.308;2023-06-26T12:34:09;3.70;;;1.80;;
27839;SDS011;15207;42.182;24.308;2023-06-26T12:36:42;4.20;;;2.10;;
27839;SDS011;15207;42.182;24.308;2023-06-26T12:39:09;4.30;;;2.10;;
27839;SDS011;15207;42.182;24.308;2023-06-26T12:46:45;4.30;;;2.40;;
27839;SDS011;15207;42.182;24.308;2023-06-26T12:49:13;4.67;;;1.73;;
27839;SDS011;15207;42.182;24.308;2023-06-26T12:51:39;3.05;;;2.05;;
27839;SDS011;15207;42.182;24.308;2023-06-26T12:54:05;3.55;;;2.20;;
27839;SDS011;15207;42.182;24.308;2023-06-26T12:56:31;3.83;;;2.00;;
27839;SDS011;15207;42.182;24.308;2023-06-26T12:58:56;3.15;;;1.80;;
27839;SDS011;15207;42.182;24.308;2023-06-26T13:01:22;4.67;;;2.03;;
27839;SDS011;15207;42.182;24.308;2023-06-26T13:03:49;3.60;;;2.20;;
27839;SDS011;15207;42.182;24.308;2023-06-26T13:06:18;6.00;;;1.90;;
27839;SDS011;15207;42.182;24.308;2023-06-26T13:08:46;7.30;;;2.50;;
27839;SDS011;15207;42.182;24.308;2023-06-26T13:11:12;3.88;;;2.38;;
27839;SDS011;15207;42.182;24.308;2023-06-26T13:13:37;7.20;;;2.10;;
27839;SDS011;15207;42.182;24.308;2023-06-26T13:16:04;11.70;;;3.63;;
27839;SDS011;15207;42.182;24.308;2023-06-26T13:18:30;13.50;;;4.00;;
27839;SDS011;15207;42.182;24.308;2023-06-26T13:20:55;8.23;;;3.10;;
27839;SDS011;15207;42.182;24.308;2023-06-26T13:25:48;7.07;;;2.83;;
27839;SDS011;15207;42.182;24.308;2023-06-26T13:28:16;8.40;;;3.25;;
27839;SDS011;15207;42.182;24.308;2023-06-26T13:30:42;4.85;;;2.50;;
27839;SDS011;15207;42.182;24.308;2023-06-26T13:33:08;4.20;;;2.60;;
27839;SDS011;15207;42.182;24.308;2023-06-26T13:35:35;6.20;;;2.80;;
27839;SDS011;15207;42.182;24.308;2023-06-26T13:38:01;3.40;;;2.45;;
27839;SDS011;15207;42.182;24.308;2023-06-26T13:40:26;5.70;;;3.40;;
27839;SDS011;15207;42.182;24.308;2023-06-26T13:42:52;7.60;;;2.60;;
27839;SDS011;15207;42.182;24.308;2023-06-26T13:45:17;5.60;;;2.80;;
27839;SDS011;15207;42.182;24.308;2023-06-26T13:47:44;9.80;;;4.00;;
27839;SDS011;15207;42.182;24.308;2023-06-26T13:50:10;9.57;;;3.67;;
27839;SDS011;15207;42.182;24.308;2023-06-26T13:52:35;11.30;;;3.45;;
27839;SDS011;15207;42.182;24.308;2023-06-26T13:55:02;8.40;;;3.60;;
27839;SDS011;15207;42.182;24.308;2023-06-26T13:57:32;6.75;;;3.25;;
27839;SDS011;15207;42.182;24.308;2023-06-26T13:59:58;10.70;;;3.90;;
27839;SDS011;15207;42.182;24.308;2023-06-26T14:02:24;6.10;;;3.58;;
27839;SDS011;15207;42.182;24.308;2023-06-26T14:04:49;8.65;;;3.95;;
27839;SDS011;15207;42.182;24.308;2023-06-26T14:07:16;6.35;;;3.85;;
27839;SDS011;15207;42.182;24.308;2023-06-26T14:09:41;6.00;;;3.50;;
27839;SDS011;15207;42.182;24.308;2023-06-26T14:12:07;6.50;;;3.83;;
27839;SDS011;15207;42.182;24.308;2023-06-26T14:14:33;6.70;;;4.00;;
27839;SDS011;15207;42.182;24.308;2023-06-26T14:16:59;12.60;;;4.10;;
27839;SDS011;15207;42.182;24.308;2023-06-26T14:19:25;6.73;;;3.70;;
27839;SDS011;15207;42.182;24.308;2023-06-26T14:21:52;9.40;;;4.67;;
27839;SDS011;15207;42.182;24.308;2023-06-26T14:24:18;10.50;;;4.25;;
27839;SDS011;15207;42.182;24.308;2023-06-26T14:26:44;6.05;;;3.70;;
27839;SDS011;15207;42.182;24.308;2023-06-26T14:29:11;12.50;;;4.90;;
27839;SDS011;15207;42.182;24.308;2023-06-26T14:31:40;7.97;;;4.55;;
27839;SDS011;15207;42.182;24.308;2023-06-26T14:34:07;11.57;;;4.75;;
27839;SDS011;15207;42.182;24.308;2023-06-26T14:36:33;9.83;;;4.60;;
27839;SDS011;15207;42.182;24.308;2023-06-26T14:39:02;7.60;;;4.37;;
27839;SDS011;15207;42.182;24.308;2023-06-26T14:41:29;7.40;;;4.30;;
27839;SDS011;15207;42.182;24.308;2023-06-26T14:43:55;5.85;;;3.55;;
27839;SDS011;15207;42.182;24.308;2023-06-26T14:46:21;8.20;;;4.10;;
27839;SDS011;15207;42.182;24.308;2023-06-26T14:48:47;13.50;;;4.78;;
27839;SDS011;15207;42.182;24.308;2023-06-26T14:51:13;10.97;;;5.10;;
27839;SDS011;15207;42.182;24.308;2023-06-26T14:53:39;11.00;;;5.30;;
27839;SDS011;15207;42.182;24.308;2023-06-26T14:56:05;9.00;;;4.45;;
27839;SDS011;15207;42.182;24.308;2023-06-26T14:58:33;10.90;;;4.20;;
27839;SDS011;15207;42.182;24.308;2023-06-26T15:00:58;7.40;;;3.90;;
27839;SDS011;15207;42.182;24.308;2023-06-26T15:03:24;5.60;;;2.95;;
27839;SDS011;15207;42.182;24.308;2023-06-26T15:05:50;7.20;;;3.70;;
27839;SDS011;15207;42.182;24.308;2023-06-26T15:08:15;6.32;;;3.30;;
27839;SDS011;15207;42.182;24.308;2023-06-26T15:10:41;5.90;;;3.90;;
27839;SDS011;15207;42.182;24.308;2023-06-26T15:13:07;5.47;;;3.63;;